Terminal Aerodrome Forecast
Issued by NWS Sioux Falls, SD

Home | Current Version | Previous Version | Text Only | Print | Product List | Glossary On
Versions: 1 2 3 4 5 6 7 8 9 10 11 12 13 14
000
FTUS43 KFSD 131700
TAFHON
TAF
KHON 131720Z 1318/1418 36025G33KT P6SM BKN012
     FM140100 36017G26KT P6SM BKN200
     FM140600 34011KT P6SM BKN200
     FM141500 33014G21KT P6SM BKN050=

USA.gov is the U.S. government's official web portal to all federal, state and local government web resources and services.